createdAt,value
2023-05-11T00:00:44.422Z,17.23
2023-05-11T00:04:51.302Z,17.02
2023-05-11T00:08:58.043Z,14.88
2023-05-11T00:13:04.742Z,16.83
2023-05-11T00:17:11.886Z,16.33
2023-05-11T00:21:18.614Z,16.73
2023-05-11T00:25:25.278Z,11.95
2023-05-11T00:29:31.925Z,14.90
2023-05-11T00:33:38.546Z,19.45
2023-05-11T00:37:45.382Z,13.68
2023-05-11T00:41:52.020Z,16.85
2023-05-11T00:45:58.814Z,13.90
2023-05-11T00:50:06.458Z,15.13
2023-05-11T00:54:15.706Z,16.42
2023-05-11T00:58:22.569Z,15.18
2023-05-11T01:02:29.779Z,18.48
2023-05-11T01:07:06.598Z,20.10
2023-05-11T01:11:13.258Z,16.00
2023-05-11T01:15:58.379Z,25.48
2023-05-11T01:20:12.853Z,17.42
2023-05-11T01:24:37.026Z,19.65
2023-05-11T01:28:53.206Z,18.48
2023-05-11T01:33:06.017Z,17.27
2023-05-11T01:37:20.471Z,18.58
2023-05-11T01:41:29.589Z,18.17
2023-05-11T01:45:39.351Z,17.75
2023-05-11T01:49:46.332Z,20.25
2023-05-11T01:53:54.498Z,19.13
2023-05-11T01:58:03.876Z,15.30
2023-05-11T02:02:12.756Z,19.40
2023-05-11T02:06:21.305Z,20.98
2023-05-11T02:10:28.871Z,14.13
2023-05-11T02:14:36.755Z,14.82
2023-05-11T02:18:44.088Z,19.85
2023-05-11T02:22:52.709Z,16.50
2023-05-11T02:26:59.552Z,18.40
2023-05-11T02:31:11.970Z,21.63
2023-05-11T02:35:29.510Z,16.05
2023-05-11T02:39:38.068Z,18.58
2023-05-11T02:43:49.287Z,19.45
2023-05-11T02:47:58.603Z,18.83
2023-05-11T02:52:08.088Z,19.52
2023-05-11T02:56:15.522Z,21.23
2023-05-11T03:00:22.632Z,16.60
2023-05-11T03:04:29.601Z,16.63
2023-05-11T03:08:36.430Z,11.25
2023-05-11T03:12:43.992Z,7.60
2023-05-11T03:16:52.350Z,10.07
2023-05-11T03:21:01.473Z,9.65
2023-05-11T03:25:09.769Z,8.82
2023-05-11T03:29:17.746Z,11.80
2023-05-11T03:33:24.484Z,10.90
2023-05-11T03:37:31.921Z,7.53
2023-05-11T03:41:40.930Z,9.82
2023-05-11T03:45:50.772Z,6.60
2023-05-11T03:49:58.740Z,8.88
2023-05-11T03:54:06.713Z,11.48
2023-05-11T03:58:13.516Z,5.43
2023-05-11T04:02:20.338Z,5.57
2023-05-11T04:06:27.130Z,7.75
2023-05-11T04:10:33.779Z,5.28
2023-05-11T04:14:40.502Z,3.35
2023-05-11T04:18:47.225Z,2.38
2023-05-11T04:22:54.600Z,3.25
2023-05-11T04:27:01.324Z,3.28
2023-05-11T04:31:08.037Z,4.57
2023-05-11T04:35:14.735Z,4.82
2023-05-11T04:39:21.391Z,3.83
2023-05-11T04:43:28.087Z,3.03
2023-05-11T04:47:35.025Z,3.70
2023-05-11T04:51:41.723Z,5.18
2023-05-11T04:55:48.500Z,3.65
2023-05-11T04:59:55.921Z,3.72
2023-05-11T05:04:02.710Z,2.92
2023-05-11T05:08:09.475Z,4.28
2023-05-11T05:12:16.228Z,5.53
2023-05-11T05:16:22.957Z,2.78
2023-05-11T05:20:29.639Z,5.18
2023-05-11T05:24:36.331Z,4.72
2023-05-11T05:28:43.035Z,3.00
2023-05-11T05:32:49.755Z,4.60
2023-05-11T05:36:56.434Z,4.38
2023-05-11T05:41:03.184Z,3.25
2023-05-11T05:45:12.458Z,1.92
2023-05-11T05:49:20.654Z,3.40
2023-05-11T05:53:27.363Z,2.35
2023-05-11T05:57:34.073Z,3.92
2023-05-11T06:01:45.569Z,3.47
2023-05-11T06:05:52.263Z,2.42
2023-05-11T06:09:59.470Z,5.20
2023-05-11T06:14:06.360Z,2.30
2023-05-11T06:18:13.071Z,1.60
2023-05-11T06:22:19.734Z,2.22
2023-05-11T06:26:28.442Z,1.63
2023-05-11T06:30:35.095Z,1.38
2023-05-11T06:34:41.756Z,2.90
2023-05-11T06:38:48.429Z,6.63
2023-05-11T06:42:55.353Z,2.83
2023-05-11T06:47:02.174Z,2.40
2023-05-11T06:51:12.402Z,3.92
2023-05-11T06:55:19.075Z,5.85
2023-05-11T06:59:26.178Z,5.13
2023-05-11T07:03:32.959Z,6.72
2023-05-11T07:07:39.619Z,5.95
2023-05-11T07:11:46.330Z,7.50
2023-05-11T07:15:54.664Z,7.10
2023-05-11T07:20:03.782Z,7.47
2023-05-11T07:24:10.446Z,7.00
2023-05-11T07:28:17.108Z,6.70
2023-05-11T07:32:23.910Z,5.50
2023-05-11T07:36:30.728Z,6.18
2023-05-11T07:40:37.434Z,6.45
2023-05-11T07:44:44.133Z,3.33
2023-05-11T07:48:57.495Z,3.95
2023-05-11T07:53:10.707Z,2.05
2023-05-11T07:57:17.736Z,3.45
2023-05-11T08:01:24.453Z,5.18
2023-05-11T08:05:33.379Z,3.15
2023-05-11T08:09:40.055Z,2.58
2023-05-11T08:13:46.820Z,3.55
2023-05-11T08:17:53.804Z,3.65
2023-05-11T08:22:01.325Z,2.72
2023-05-11T08:26:07.999Z,3.15
2023-05-11T08:30:14.890Z,2.97
2023-05-11T08:34:26.025Z,2.80
2023-05-11T08:38:33.431Z,2.97
2023-05-11T08:42:46.508Z,1.88
2023-05-11T08:47:01.545Z,2.55
2023-05-11T08:51:20.860Z,2.58
2023-05-11T08:55:28.792Z,1.83
2023-05-11T08:59:36.011Z,3.28
2023-05-11T09:03:44.409Z,5.13
2023-05-11T09:07:53.633Z,2.58
2023-05-11T09:12:00.374Z,2.13
2023-05-11T09:16:13.847Z,2.75
2023-05-11T09:20:33.281Z,2.38
2023-05-11T09:24:42.634Z,2.63
2023-05-11T09:29:02.507Z,1.50
2023-05-11T09:33:10.276Z,1.98
2023-05-11T09:37:18.578Z,1.15
2023-05-11T09:41:25.611Z,1.17
2023-05-11T09:45:42.116Z,1.42
2023-05-11T09:49:48.887Z,1.05
2023-05-11T09:53:55.995Z,2.50
2023-05-11T09:58:03.478Z,0.40
2023-05-11T10:02:17.896Z,1.92
2023-05-11T10:06:25.139Z,0.60
2023-05-11T10:10:33.674Z,0.95
2023-05-11T10:14:41.110Z,1.05
2023-05-11T10:18:48.078Z,0.98
2023-05-11T10:22:56.079Z,0.50
2023-05-11T10:27:03.838Z,1.15
2023-05-11T10:31:11.170Z,1.17
2023-05-11T10:35:18.534Z,0.30
2023-05-11T10:39:25.570Z,0.75
2023-05-11T10:43:48.354Z,0.77
2023-05-11T10:48:15.466Z,0.20
2023-05-11T10:52:29.541Z,0.20
2023-05-11T10:57:08.296Z,0.82
2023-05-11T11:01:34.562Z,0.20
2023-05-11T11:05:43.868Z,5.68
2023-05-11T11:10:00.724Z,0.22
2023-05-11T11:14:09.998Z,0.30
2023-05-11T11:18:19.555Z,0.43
2023-05-11T11:22:35.472Z,0.08
2023-05-11T11:26:50.460Z,0.20
2023-05-11T11:31:29.054Z,0.10
2023-05-11T11:35:42.342Z,0.35
2023-05-11T11:39:53.464Z,0.30
2023-05-11T11:44:00.147Z,1.30
2023-05-11T11:48:13.267Z,1.10
2023-05-11T11:52:29.217Z,0.10
2023-05-11T11:56:40.082Z,0.20
2023-05-11T12:00:48.116Z,2.50
2023-05-11T12:05:00.507Z,0.63
2023-05-11T12:09:08.433Z,0.22
2023-05-11T12:13:19.461Z,0.10
2023-05-11T12:17:29.402Z,3.05
2023-05-11T12:21:37.106Z,0.20
2023-05-11T12:25:43.800Z,0.10
2023-05-11T12:29:51.007Z,5.47
2023-05-11T12:33:57.659Z,3.00
2023-05-11T12:38:04.378Z,2.55
2023-05-11T12:42:18.890Z,0.10
2023-05-11T12:46:25.840Z,0.25
2023-05-11T12:50:32.596Z,0.20
2023-05-11T12:54:41.650Z,0.10
2023-05-11T12:58:48.357Z,0.03
2023-05-11T13:02:56.229Z,0.00
2023-05-11T13:07:03.387Z,1.55
2023-05-11T13:11:25.235Z,0.60
2023-05-11T13:19:39.745Z,0.47
2023-05-11T13:23:50.752Z,1.48
2023-05-11T13:27:57.438Z,0.90
2023-05-11T13:32:04.429Z,0.50
2023-05-11T13:36:11.597Z,0.70
2023-05-11T13:40:18.459Z,0.40
2023-05-11T13:44:25.230Z,2.47
2023-05-11T13:48:32.245Z,3.95
2023-05-11T13:52:40.346Z,3.95
2023-05-11T13:56:47.406Z,0.90
2023-05-11T14:01:07.264Z,1.85
2023-05-11T14:05:15.177Z,2.83
2023-05-11T14:09:23.284Z,7.05
2023-05-11T14:13:29.999Z,4.90
2023-05-11T14:17:37.068Z,5.35
2023-05-11T14:21:43.971Z,7.10
2023-05-11T14:25:50.640Z,3.55
2023-05-11T14:29:57.284Z,2.80
2023-05-11T14:34:04.559Z,1.83
2023-05-11T14:38:11.199Z,2.33
2023-05-11T14:42:18.421Z,6.20
2023-05-11T14:46:26.703Z,6.70
2023-05-11T14:50:34.838Z,6.35
2023-05-11T14:54:42.478Z,6.78
2023-05-11T14:58:49.598Z,5.25
2023-05-11T15:02:56.372Z,7.47
2023-05-11T15:07:03.036Z,5.13
2023-05-11T15:11:09.710Z,8.85
2023-05-11T15:15:17.019Z,7.13
2023-05-11T15:19:23.763Z,5.95
2023-05-11T15:23:30.690Z,5.90
2023-05-11T15:27:37.483Z,6.97
2023-05-11T15:31:44.201Z,9.52
2023-05-11T15:35:51.360Z,7.00
2023-05-11T15:39:58.259Z,6.43
2023-05-11T15:44:05.380Z,9.05
2023-05-11T15:48:12.331Z,9.35
2023-05-11T15:52:19.018Z,8.25
2023-05-11T15:56:26.421Z,6.07
2023-05-11T16:00:33.087Z,5.43
2023-05-11T16:04:39.828Z,4.90
2023-05-11T16:08:46.515Z,3.55
2023-05-11T16:12:53.206Z,3.58
2023-05-11T16:17:01.733Z,4.90
2023-05-11T16:21:08.699Z,4.28
2023-05-11T16:25:16.050Z,2.78
2023-05-11T16:29:22.780Z,3.83
2023-05-11T16:33:29.466Z,2.72
2023-05-11T16:37:36.178Z,3.95
2023-05-11T16:41:42.847Z,3.20
2023-05-11T16:45:49.610Z,4.32
2023-05-11T16:49:56.857Z,5.28
2023-05-11T16:54:03.534Z,5.38
2023-05-11T16:58:10.283Z,4.57
2023-05-11T17:02:17.127Z,4.00
2023-05-11T17:06:24.764Z,8.52
2023-05-11T17:10:31.734Z,4.75
2023-05-11T17:14:38.414Z,5.97
2023-05-11T17:18:45.101Z,4.13
2023-05-11T17:22:52.350Z,5.72
2023-05-11T17:26:59.035Z,4.22
2023-05-11T17:31:14.158Z,3.33
2023-05-11T17:35:20.926Z,3.65
2023-05-11T17:39:27.583Z,3.85
2023-05-11T17:43:35.761Z,4.07
2023-05-11T17:47:42.520Z,3.25
2023-05-11T17:51:49.276Z,6.03
2023-05-11T17:56:02.278Z,4.40
2023-05-11T18:00:10.777Z,3.55
2023-05-11T18:04:18.127Z,8.38
2023-05-11T18:08:25.688Z,6.60
2023-05-11T18:12:32.565Z,5.28
2023-05-11T18:16:39.395Z,10.80
2023-05-11T18:20:46.486Z,5.70
2023-05-11T18:24:53.477Z,8.50
2023-05-11T18:29:01.776Z,6.82
2023-05-11T18:33:08.580Z,7.03
2023-05-11T18:37:16.224Z,8.20
2023-05-11T18:41:23.138Z,11.38
2023-05-11T18:45:30.720Z,8.00
2023-05-11T18:49:38.918Z,10.07
2023-05-11T18:53:45.699Z,9.82
2023-05-11T18:57:52.720Z,10.07
2023-05-11T19:01:59.473Z,8.15
2023-05-11T19:06:07.575Z,5.53
2023-05-11T19:10:14.315Z,4.50
2023-05-11T19:14:21.067Z,5.38
2023-05-11T19:18:28.480Z,3.42
2023-05-11T19:22:35.769Z,6.68
2023-05-11T19:26:45.372Z,3.72
2023-05-11T19:31:03.362Z,3.58
2023-05-11T19:35:11.670Z,3.50
2023-05-11T19:39:18.331Z,3.13
2023-05-11T19:43:25.179Z,4.65
2023-05-11T19:47:32.015Z,5.10
2023-05-11T19:51:38.714Z,6.07
2023-05-11T19:55:47.771Z,5.60
2023-05-11T19:59:54.771Z,4.82
2023-05-11T20:04:01.809Z,4.63
2023-05-11T20:08:09.038Z,5.75
2023-05-11T20:12:15.753Z,7.20
2023-05-11T20:16:22.542Z,3.58
2023-05-11T20:20:31.560Z,4.07
2023-05-11T20:24:38.219Z,6.38
2023-05-11T20:28:44.993Z,5.05
2023-05-11T20:37:01.300Z,9.23
2023-05-11T20:41:07.981Z,4.90
2023-05-11T20:45:15.274Z,6.95
2023-05-11T20:49:37.767Z,5.57
2023-05-11T20:53:46.119Z,4.63
2023-05-11T20:57:52.788Z,8.15
2023-05-11T21:02:00.207Z,6.00
2023-05-11T21:06:08.643Z,4.97
2023-05-11T21:10:15.383Z,8.30
2023-05-11T21:14:22.643Z,4.82
2023-05-11T21:18:32.237Z,5.72
2023-05-11T21:22:39.029Z,6.88
2023-05-11T21:26:48.027Z,7.55
2023-05-11T21:30:55.019Z,5.35
2023-05-11T21:35:01.760Z,7.05
2023-05-11T21:39:08.469Z,5.65
2023-05-11T21:43:15.106Z,6.57
2023-05-11T21:47:21.810Z,5.38
2023-05-11T21:51:28.554Z,3.65
2023-05-11T21:55:36.125Z,4.80
2023-05-11T21:59:43.495Z,4.93
2023-05-11T22:03:50.423Z,5.63
2023-05-11T22:08:06.660Z,5.85
2023-05-11T22:12:17.525Z,7.70
2023-05-11T22:16:24.241Z,6.85
2023-05-11T22:20:31.909Z,7.38
2023-05-11T22:24:38.602Z,8.68
2023-05-11T22:28:45.520Z,8.07
2023-05-11T22:32:52.236Z,11.27
2023-05-11T22:37:00.163Z,7.55
2023-05-11T22:41:07.341Z,7.35
2023-05-11T22:45:15.203Z,7.95
2023-05-11T22:49:21.912Z,9.20
2023-05-11T22:53:29.709Z,10.45
2023-05-11T22:57:36.380Z,9.15
2023-05-11T23:01:43.117Z,10.13
2023-05-11T23:05:49.842Z,9.13
2023-05-11T23:09:56.612Z,10.95
2023-05-11T23:14:04.025Z,10.30
2023-05-11T23:18:10.832Z,13.15
2023-05-11T23:22:17.639Z,11.85
2023-05-11T23:26:24.289Z,10.27
2023-05-11T23:30:31.416Z,9.57
2023-05-11T23:34:38.189Z,10.10
2023-05-11T23:38:44.895Z,11.65
2023-05-11T23:42:51.629Z,8.25
2023-05-11T23:46:58.269Z,9.70
2023-05-11T23:51:04.964Z,7.88
2023-05-11T23:55:11.846Z,10.60
2023-05-11T23:59:18.506Z,9.65
